Sea Cloud — 9HOM2 — position and weather

sailwx.info

Track history (hours):
 
Tides and Currents Weather Stations Pressure Air Temp Water Temp Dewpoint Dewpoint Depression Visibility Wind Speed Wind Dir Waves Ship Positions

Sea Cloud

Ship's website: http://www.seacloud.com/en/the-ships/sea-cloud.html

Last reported at 2019-Jan-21 12:41 UTC. Time now 2019-Jan-23 22:05 UTC.
Position N 14°13' W 060°48'.

Length 110 m; draft 5.3 m.

Type: Ship. MMSI: 256084000.

Date/timePositionNaut miles runAvg speedWind from/ knotsBaromVisibWave heightAir tempDewpointWater temp
2019-Jan-21 12:41N 14°13' W 060°48'2 8.2
2019-Jan-21 12:30N 14°13' W 060°50'4 8.1
2019-Jan-21 12:00N 14°15' W 060°54'4 7.7
2019-Jan-21 11:30N 14°17' W 060°57'4 7.8
2019-Jan-21 10:59N 14°19' W 061°01'4 7.8
2019-Jan-21 10:30N 14°20' W 061°04'5 8.0
2019-Jan-21 09:52N 14°23' W 061°08'3 9.0
2019-Jan-21 09:29N 14°26' W 061°10'6 9.7
2019-Jan-21 08:49N 14°31' W 061°14'3 9.6
2019-Jan-21 08:28N 14°34' W 061°16'205 5.8
2019-Jan-19 21:22N 17°36' W 062°54'3 7.6
2019-Jan-19 21:00N 17°39' W 062°55'3 4.9
2019-Jan-19 20:23N 17°42' W 062°54'2 4.4
2019-Jan-19 20:00N 17°43' W 062°54'5 4.5
2019-Jan-19 18:51N 17°48' W 062°53'2 4.8
2019-Jan-19 18:27N 17°50' W 062°52'4 0.2
2019-Jan-18 18:20N 17°54' W 062°54'2 4.9
2019-Jan-18 17:55N 17°54' W 062°56'2 2.4
2019-Jan-18 17:07N 17°52' W 062°55'3 3.3
2019-Jan-18 16:15N 17°50' W 062°54'1 3.5
2019-Jan-18 15:59N 17°49' W 062°53'8 1.4
2019-Jan-18 10:33N 17°41' W 062°56'1 9.6
2019-Jan-18 10:27N 17°42' W 062°57'4 9.2
2019-Jan-18 10:00N 17°43' W 063°01'5 9.7
2019-Jan-18 09:30N 17°46' W 063°05'7 9.6
2019-Jan-18 08:48N 17°50' W 063°11'3 9.5
2019-Jan-18 08:30N 17°51' W 063°13'5 9.5
2019-Jan-18 07:57N 17°54' W 063°18'5 9.5
2019-Jan-18 07:27N 17°57' W 063°22'4 9.6
2019-Jan-18 06:59N 17°59' W 063°26'68 9.3
2019-Jan-17 23:43N 18°31' W 064°29'2 9.5
2019-Jan-17 23:29N 18°31' W 064°31'5 9.4
2019-Jan-17 23:00N 18°30' W 064°36'5 9.8
2019-Jan-17 22:30N 18°27' W 064°40'4 8.6
2019-Jan-17 22:00N 18°26' W 064°44'2 2.7
2019-Jan-17 21:26N 18°26' W 064°46'0 0.0
2019-Jan-17 20:50N 18°26' W 064°46'0 0.0
2019-Jan-17 20:26N 18°26' W 064°46'0 0.1
2019-Jan-17 19:56N 18°26' W 064°46'0 0.0
2019-Jan-17 19:26N 18°26' W 064°46'0 0.0
2019-Jan-17 18:56N 18°26' W 064°46'0 0.0
2019-Jan-17 18:26N 18°26' W 064°46'0 0.0
2019-Jan-17 17:56N 18°26' W 064°46'0 0.0
2019-Jan-17 17:26N 18°26' W 064°46'0 0.0
2019-Jan-17 16:56N 18°26' W 064°46'0 0.1
2019-Jan-17 16:30N 18°26' W 064°46'2 3.6
2019-Jan-17 16:00N 18°25' W 064°47'2 3.6
2019-Jan-17 15:30N 18°24' W 064°46'2 3.8
2019-Jan-17 15:00N 18°23' W 064°45'2 4.0
2019-Jan-17 14:30N 18°22' W 064°43'2 4.1
2019-Jan-17 14:00N 18°22' W 064°40'3 4.3
2019-Jan-17 13:18N 18°22' W 064°37'1 4.8
2019-Jan-17 13:00N 18°23' W 064°36'2 4.7
2019-Jan-17 12:30N 18°23' W 064°33'3 6.1
2019-Jan-17 12:00N 18°24' W 064°30'10 8.8
2019-Jan-17 10:52N 18°31' W 064°23'7 0.3
2019-Jan-16 11:01N 18°26' W 064°28'0 6.8
2019-Jan-16 11:00N 18°26' W 064°28'4 6.8
2019-Jan-16 10:22N 18°22' W 064°26'3 3.6
2019-Jan-16 09:24N 18°20' W 064°24'1 0.9
2019-Jan-16 08:40N 18°19' W 064°23'61 2.8
2019-Jan-15 11:04N 17°53' W 063°25'3 7.6
2019-Jan-15 10:42N 17°51' W 063°22'4 8.1
2019-Jan-15 10:10N 17°49' W 063°18'2 7.9
2019-Jan-15 09:54N 17°49' W 063°16'4 7.8
2019-Jan-15 09:25N 17°47' W 063°13'4 7.9
2019-Jan-15 08:57N 17°45' W 063°09'4 7.9
2019-Jan-15 08:29N 17°43' W 063°06'5 8.2
2019-Jan-15 07:54N 17°41' W 063°01'7 0.2
2019-Jan-13 21:01N 17°36' W 062°56'1 5.3
2019-Jan-13 20:50N 17°37' W 062°56'2 5.1
2019-Jan-13 20:29N 17°39' W 062°55'2 5.0
2019-Jan-13 20:00N 17°41' W 062°55'5 5.0
2019-Jan-13 19:03N 17°46' W 062°53'0 5.0
2019-Jan-13 18:59N 17°46' W 062°53'3 5.0
2019-Jan-13 18:28N 17°49' W 062°53'4 0.2
2019-Jan-12 15:49N 17°53' W 062°53'3 4.0
2019-Jan-12 15:06N 17°50' W 062°52'1 5.4
2019-Jan-12 14:54N 17°50' W 062°51'28 4.2
2019-Jan-12 08:17N 17°22' W 062°56'  
Track history (hours):
 
Tides and Currents Weather Stations Pressure Air Temp Water Temp Dewpoint Dewpoint Depression Visibility Wind Speed Wind Dir Waves Ship Positions

Sea Cloud

Ship's website: http://www.seacloud.com/en/the-ships/sea-cloud.html

Last reported at 2019-Jan-21 12:41 UTC. Time now 2019-Jan-23 22:05 UTC.
Position N 14°13' W 060°48'.

Length 110 m; draft 5.3 m.

Type: Ship. MMSI: 256084000.

Date/timePositionNaut miles runAvg speedWind from/ knotsBaromVisibWave heightAir tempDewpointWater temp
2019-Jan-21 12:41N 14°13' W 060°48'2 8.2
2019-Jan-21 12:30N 14°13' W 060°50'4 8.1
2019-Jan-21 12:00N 14°15' W 060°54'4 7.7
2019-Jan-21 11:30N 14°17' W 060°57'4 7.8
2019-Jan-21 10:59N 14°19' W 061°01'4 7.8
2019-Jan-21 10:30N 14°20' W 061°04'5 8.0
2019-Jan-21 09:52N 14°23' W 061°08'3 9.0
2019-Jan-21 09:29N 14°26' W 061°10'6 9.7
2019-Jan-21 08:49N 14°31' W 061°14'3 9.6
2019-Jan-21 08:28N 14°34' W 061°16'205 5.8
2019-Jan-19 21:22N 17°36' W 062°54'3 7.6
2019-Jan-19 21:00N 17°39' W 062°55'3 4.9
2019-Jan-19 20:23N 17°42' W 062°54'2 4.4
2019-Jan-19 20:00N 17°43' W 062°54'5 4.5
2019-Jan-19 18:51N 17°48' W 062°53'2 4.8
2019-Jan-19 18:27N 17°50' W 062°52'4 0.2
2019-Jan-18 18:20N 17°54' W 062°54'2 4.9
2019-Jan-18 17:55N 17°54' W 062°56'2 2.4
2019-Jan-18 17:07N 17°52' W 062°55'3 3.3
2019-Jan-18 16:15N 17°50' W 062°54'1 3.5
2019-Jan-18 15:59N 17°49' W 062°53'8 1.4
2019-Jan-18 10:33N 17°41' W 062°56'1 9.6
2019-Jan-18 10:27N 17°42' W 062°57'4 9.2
2019-Jan-18 10:00N 17°43' W 063°01'5 9.7
2019-Jan-18 09:30N 17°46' W 063°05'7 9.6
2019-Jan-18 08:48N 17°50' W 063°11'3 9.5
2019-Jan-18 08:30N 17°51' W 063°13'5 9.5
2019-Jan-18 07:57N 17°54' W 063°18'5 9.5
2019-Jan-18 07:27N 17°57' W 063°22'4 9.6
2019-Jan-18 06:59N 17°59' W 063°26'68 9.3
2019-Jan-17 23:43N 18°31' W 064°29'2 9.5
2019-Jan-17 23:29N 18°31' W 064°31'5 9.4
2019-Jan-17 23:00N 18°30' W 064°36'5 9.8
2019-Jan-17 22:30N 18°27' W 064°40'4 8.6
2019-Jan-17 22:00N 18°26' W 064°44'2 2.7
2019-Jan-17 21:26N 18°26' W 064°46'0 0.0
2019-Jan-17 20:50N 18°26' W 064°46'0 0.0
2019-Jan-17 20:26N 18°26' W 064°46'0 0.1
2019-Jan-17 19:56N 18°26' W 064°46'0 0.0
2019-Jan-17 19:26N 18°26' W 064°46'0 0.0
2019-Jan-17 18:56N 18°26' W 064°46'0 0.0
2019-Jan-17 18:26N 18°26' W 064°46'0 0.0
2019-Jan-17 17:56N 18°26' W 064°46'0 0.0
2019-Jan-17 17:26N 18°26' W 064°46'0 0.0
2019-Jan-17 16:56N 18°26' W 064°46'0 0.1
2019-Jan-17 16:30N 18°26' W 064°46'2 3.6
2019-Jan-17 16:00N 18°25' W 064°47'2 3.6
2019-Jan-17 15:30N 18°24' W 064°46'2 3.8
2019-Jan-17 15:00N 18°23' W 064°45'2 4.0
2019-Jan-17 14:30N 18°22' W 064°43'2 4.1
2019-Jan-17 14:00N 18°22' W 064°40'3 4.3
2019-Jan-17 13:18N 18°22' W 064°37'1 4.8
2019-Jan-17 13:00N 18°23' W 064°36'2 4.7
2019-Jan-17 12:30N 18°23' W 064°33'3 6.1
2019-Jan-17 12:00N 18°24' W 064°30'10 8.8
2019-Jan-17 10:52N 18°31' W 064°23'7 0.3
2019-Jan-16 11:01N 18°26' W 064°28'0 6.8
2019-Jan-16 11:00N 18°26' W 064°28'4 6.8
2019-Jan-16 10:22N 18°22' W 064°26'3 3.6
2019-Jan-16 09:24N 18°20' W 064°24'1 0.9
2019-Jan-16 08:40N 18°19' W 064°23'61 2.8
2019-Jan-15 11:04N 17°53' W 063°25'3 7.6
2019-Jan-15 10:42N 17°51' W 063°22'4 8.1
2019-Jan-15 10:10N 17°49' W 063°18'2 7.9
2019-Jan-15 09:54N 17°49' W 063°16'4 7.8
2019-Jan-15 09:25N 17°47' W 063°13'4 7.9
2019-Jan-15 08:57N 17°45' W 063°09'4 7.9
2019-Jan-15 08:29N 17°43' W 063°06'5 8.2
2019-Jan-15 07:54N 17°41' W 063°01'7 0.2
2019-Jan-13 21:01N 17°36' W 062°56'1 5.3
2019-Jan-13 20:50N 17°37' W 062°56'2 5.1
2019-Jan-13 20:29N 17°39' W 062°55'2 5.0
2019-Jan-13 20:00N 17°41' W 062°55'5 5.0
2019-Jan-13 19:03N 17°46' W 062°53'0 5.0
2019-Jan-13 18:59N 17°46' W 062°53'3 5.0
2019-Jan-13 18:28N 17°49' W 062°53'4 0.2
2019-Jan-12 15:49N 17°53' W 062°53'3 4.0
2019-Jan-12 15:06N 17°50' W 062°52'1 5.4
2019-Jan-12 14:54N 17°50' W 062°51'28 4.2
2019-Jan-12 08:17N 17°22' W 062°56'  

Dump ship's entire track history